Time;durP1;ratioP1;P1;durP2;ratioP2;P2;SDS_P1;SDS_P2;PMS_P1;PMS_P2;Temp;Humidity;BMP_temperature;BMP_pressure;BME280_temperature;BME280_humidity;BME280_pressure;Samples;Min_cycle;Max_cycle;Signal;HPM_P1;HPM_P2
2021/04/11 00:00:44;;;;;;;65.12;43.68;;;;;;;8.54;73.37;100149.06;2890534;82;21130;-69
2021/04/11 00:04:48;;;;;;;60.73;38.25;;;;;;;8.51;73.22;100147.15;2890535;82;21600;-68
2021/04/11 00:08:51;;;;;;;55.75;37.20;;;;;;;8.46;73.21;100146.13;2890506;82;21460;-68
2021/04/11 00:12:59;;;;;;;58.63;38.15;;;;;;;8.31;73.10;100134.02;2992751;79;21138;-68
2021/04/11 00:17:04;;;;;;;47.88;33.45;;;;;;;8.09;73.72;100135.16;2995465;79;21146;-68
2021/04/11 00:21:08;;;;;;;54.60;34.53;;;;;;;8.01;74.50;100129.56;2928578;81;21165;-67
2021/04/11 00:25:17;;;;;;;58.68;37.35;;;;;;;8.04;74.81;100127.17;3003520;79;21157;-68
2021/04/11 00:29:20;;;;;;;52.62;36.33;;;;;;;8.13;74.85;100117.20;2987028;79;21082;-68
2021/04/11 00:33:31;;;;;;;55.38;35.88;;;;;;;8.20;74.60;100122.91;2985572;79;21134;-68
2021/04/11 00:37:34;;;;;;;63.28;38.45;;;;;;;8.12;74.58;100117.70;2985257;79;21580;-68
2021/04/11 00:41:44;;;;;;;63.23;38.15;;;;;;;7.98;74.81;100118.73;2985311;79;21179;-67
2021/04/11 00:46:32;;;;;;;55.85;39.00;;;;;;;7.85;75.21;100114.79;2985435;79;21162;-67
2021/04/11 00:50:38;;;;;;;71.30;42.35;;;;;;;7.74;75.65;100112.10;2855092;81;21189;-68
2021/04/11 00:54:45;;;;;;;61.53;40.98;;;;;;;7.76;75.78;100111.50;2891008;82;21181;-68
2021/04/11 00:58:50;;;;;;;;;;;;;;;7.78;75.68;100110.09;2893340;82;21138;-68
2021/04/11 01:02:53;;;;;;;58.20;41.18;;;;;;;7.82;75.65;100114.19;2890449;82;20198;-69
2021/04/11 01:07:02;;;;;;;59.63;38.38;;;;;;;7.79;75.40;100105.98;2854569;83;21158;-69
2021/04/11 01:11:15;;;;;;;49.93;35.28;;;;;;;7.78;75.25;100095.02;2889791;81;21142;-69
2021/04/11 01:15:29;;;;;;;54.42;40.15;;;;;;;7.79;75.18;100099.86;2890543;82;21158;-68
2021/04/11 01:19:36;;;;;;;52.78;36.90;;;;;;;7.80;75.31;100098.41;2926299;80;21165;-69
2021/04/11 01:23:59;;;;;;;57.62;36.93;;;;;;;7.85;75.03;100094.92;2915812;80;21103;-69
2021/04/11 01:28:21;;;;;;;58.70;35.78;;;;;;;7.87;74.98;100093.50;2941350;79;21137;-69
2021/04/11 01:32:25;;;;;;;60.43;37.40;;;;;;;7.91;74.74;100095.45;2927702;81;21201;-68
2021/04/11 01:36:31;;;;;;;51.70;34.73;;;;;;;7.91;74.51;100094.13;3003604;79;21145;-68
2021/04/11 01:40:39;;;;;;;57.00;37.13;;;;;;;7.89;74.42;100074.37;3003872;79;21194;-68
2021/04/11 01:44:46;;;;;;;48.80;35.83;;;;;;;7.89;74.43;100070.89;2988908;79;21520;-69
2021/04/11 01:48:50;;;;;;;49.05;32.50;;;;;;;7.86;74.47;100058.25;2963367;80;21143;-68
2021/04/11 01:52:54;;;;;;;51.45;35.30;;;;;;;7.88;74.36;100058.61;2960433;80;21163;-68
2021/04/11 01:56:58;;;;;;;48.50;33.08;;;;;;;7.88;74.37;100049.34;2963423;79;21100;-68
2021/04/11 02:01:21;;;;;;;46.35;32.25;;;;;;;7.85;74.36;100051.73;2963331;79;21582;-67
2021/04/11 02:05:26;;;;;;;51.15;33.73;;;;;;;7.83;74.47;100035.94;2963545;80;21135;-68
2021/04/11 02:09:33;;;;;;;48.50;34.18;;;;;;;7.83;74.55;100037.76;2963366;80;21622;-68
2021/04/11 02:13:39;;;;;;;44.42;31.17;;;;;;;7.81;74.28;100027.27;2963325;80;21751;-68
2021/04/11 02:17:42;;;;;;;;;;;;;;;7.81;74.24;100025.12;2986539;79;21142;-68
2021/04/11 02:21:56;;;;;;;69.72;42.03;;;;;;;7.81;74.00;100021.97;2985153;79;20490;-68
2021/04/11 02:25:59;;;;;;;67.10;41.13;;;;;;;7.71;74.01;100014.36;2984766;79;21101;-68
2021/04/11 02:30:06;;;;;;;64.12;43.30;;;;;;;7.66;74.19;100008.55;2985346;79;21154;-68
2021/04/11 02:34:28;;;;;;;62.75;42.88;;;;;;;7.55;73.95;100010.66;2906566;81;21158;-68
2021/04/11 02:38:31;;;;;;;72.72;47.58;;;;;;;7.39;74.29;100002.55;2985452;79;21180;-68
2021/04/11 02:42:36;;;;;;;65.90;45.03;;;;;;;7.32;74.65;99996.49;2985120;79;21142;-68
2021/04/11 02:46:41;;;;;;;66.28;40.78;;;;;;;7.27;75.00;99991.06;2984698;79;21126;-69
2021/04/11 02:50:44;;;;;;;61.37;40.63;;;;;;;7.27;75.30;99987.09;2906923;81;21583;-68
2021/04/11 02:54:49;;;;;;;64.80;42.70;;;;;;;7.35;75.54;99992.30;2985483;79;21819;-68
2021/04/11 02:58:52;;;;;;;63.48;42.20;;;;;;;7.43;75.33;99989.92;2985289;79;21138;-69
2021/04/11 03:02:56;;;;;;;52.85;36.05;;;;;;;7.46;74.73;99988.36;2985063;79;21165;-68
2021/04/11 03:07:16;;;;;;;56.63;36.88;;;;;;;7.49;74.69;99979.36;2985097;79;21651;-68
2021/04/11 03:11:33;;;;;;;62.58;41.48;;;;;;;7.50;74.73;99980.59;2906183;81;21592;-68
2021/04/11 03:15:37;;;;;;;61.77;43.02;;;;;;;7.48;74.70;99974.56;2985078;79;21142;-68
2021/04/11 03:19:48;;;;;;;52.50;34.85;;;;;;;7.49;74.66;99974.93;2985134;79;21573;-68
2021/04/11 03:23:52;;;;;;;56.95;36.65;;;;;;;7.52;74.37;99975.16;2977892;79;21569;-68
2021/04/11 03:28:11;;;;;;;46.30;34.40;;;;;;;7.47;74.30;99975.98;2987723;79;21142;-68
2021/04/11 03:32:19;;;;;;;60.40;42.17;;;;;;;7.45;74.22;99974.77;2987316;79;21146;-68
2021/04/11 03:36:25;;;;;;;47.80;35.20;;;;;;;7.41;74.07;99970.20;2990007;79;21165;-68
2021/04/11 03:40:32;;;;;;;64.53;43.20;;;;;;;7.34;73.76;99968.94;2990595;79;21661;-68
2021/04/11 03:44:36;;;;;;;66.20;41.58;;;;;;;7.26;73.69;99962.89;2860479;83;21169;-68
2021/04/11 03:48:53;;;;;;;57.30;39.85;;;;;;;7.20;74.23;99965.99;2910631;81;21142;-68
2021/04/11 03:53:07;;;;;;;59.63;38.38;;;;;;;7.12;74.68;99965.72;2860600;82;21566;-69
2021/04/11 03:57:15;;;;;;;57.25;38.78;;;;;;;7.01;75.37;99959.89;2915925;80;21146;-69
2021/04/11 04:01:23;;;;;;;66.17;45.15;;;;;;;6.96;75.65;99962.85;2888751;81;21075;-68
2021/04/11 04:05:29;;;;;;;62.70;41.48;;;;;;;6.88;76.02;99949.35;2916695;81;21159;-68
2021/04/11 04:09:35;;;;;;;60.05;42.08;;;;;;;6.82;76.24;99949.77;2916722;81;21159;-68
2021/04/11 04:13:52;;;;;;;50.85;38.55;;;;;;;6.75;76.71;99947.21;2916718;81;21111;-68
2021/04/11 04:18:26;;;;;;;67.50;40.55;;;;;;;6.71;77.15;99944.79;2916267;81;21604;-68
2021/04/11 04:23:09;;;;;;;66.17;41.70;;;;;;;6.76;77.53;99945.76;2916472;81;21573;-69
2021/04/11 04:27:40;;;;;;;64.58;42.70;;;;;;;6.87;77.41;99943.67;2950391;79;21171;-69
2021/04/11 04:32:05;;;;;;;58.85;41.48;;;;;;;6.97;77.30;99956.61;2924910;80;21606;-68
2021/04/11 04:36:47;;;;;;;59.73;39.85;;;;;;;7.14;77.70;99954.55;2917718;80;21668;-67
2021/04/11 04:41:18;;;;;;;56.50;40.45;;;;;;;7.58;77.46;99949.58;2958280;80;21139;-67
2021/04/11 04:45:55;;;;;;;69.37;42.75;;;;;;;8.10;76.41;99947.89;2958835;80;21146;-66
2021/04/11 04:50:23;;;;;;;66.25;46.50;;;;;;;8.49;75.23;99949.72;2958769;80;21125;-66
2021/04/11 04:54:34;;;;;;;64.53;45.05;;;;;;;8.73;73.97;99955.90;2958570;80;21159;-67
2021/04/11 04:58:45;;;;;;;52.90;37.13;;;;;;;8.74;73.19;99958.91;2958698;80;21178;-67
2021/04/11 05:03:19;;;;;;;69.45;45.12;;;;;;;8.69;72.99;99964.10;2935658;80;21163;-67
2021/04/11 05:07:26;;;;;;;65.22;43.48;;;;;;;8.52;73.07;99955.31;2939126;80;21158;-67
2021/04/11 05:11:52;;;;;;;58.35;40.20;;;;;;;8.33;73.75;99958.51;2915276;80;21143;-67
2021/04/11 05:16:12;;;;;;;58.33;38.70;;;;;;;8.21;74.29;99947.06;2957666;80;21119;-67
2021/04/11 05:20:20;;;;;;;60.05;42.48;;;;;;;8.15;74.66;99954.99;2958508;79;21153;-67
2021/04/11 05:24:39;;;;;;;55.88;39.67;;;;;;;8.11;74.91;99950.90;2985497;79;21110;-68
2021/04/11 05:29:08;;;;;;;62.15;42.25;;;;;;;8.14;75.44;99951.98;2992625;79;21145;-67
2021/04/11 05:33:17;;;;;;;63.23;41.53;;;;;;;8.36;75.60;99949.02;2928764;80;21683;-66
2021/04/11 05:37:54;;;;;;;54.18;41.45;;;;;;;8.91;75.22;99946.94;2940954;80;21161;-66
2021/04/11 05:42:08;;;;;;;70.00;44.53;;;;;;;9.35;74.12;99951.79;2916532;81;21154;-67
2021/04/11 05:46:41;;;;;;;59.98;40.95;;;;;;;9.78;72.61;99939.39;2936394;80;21131;-67
2021/04/11 05:51:02;;;;;;;56.73;37.58;;;;;;;10.27;71.88;99942.33;2968237;80;21146;-66
2021/04/11 05:55:09;;;;;;;55.70;34.90;;;;;;;10.85;70.44;99948.06;2967963;80;21091;-69
2021/04/11 05:59:16;;;;;;;46.77;36.90;;;;;;;11.41;69.21;99949.26;2952507;80;21138;-68
2021/04/11 06:03:26;;;;;;;49.35;35.58;;;;;;;11.94;67.98;99951.60;2933868;80;21170;-67
2021/04/11 06:07:52;;;;;;;54.05;36.77;;;;;;;12.45;66.70;99942.03;2962029;80;21143;-68
2021/04/11 06:12:06;;;;;;;55.58;40.05;;;;;;;12.86;65.21;99946.54;2952219;80;21596;-68
2021/04/11 06:16:16;;;;;;;48.75;35.78;;;;;;;13.22;63.81;99945.74;2968171;80;21596;-67
2021/04/11 06:20:23;;;;;;;66.40;47.27;;;;;;;13.58;62.97;99946.30;2967973;80;21095;-68
2021/04/11 06:24:52;;;;;;;49.77;36.45;;;;;;;13.92;61.09;99932.17;2930945;80;21174;-67
2021/04/11 06:29:14;;;;;;;48.17;34.05;;;;;;;14.15;60.15;99925.81;2876522;81;21626;-68
2021/04/11 06:33:38;;;;;;;40.98;31.75;;;;;;;14.45;60.03;99924.13;2833660;82;21165;-68
2021/04/11 06:37:45;;;;;;;38.78;29.00;;;;;;;14.67;59.05;99926.23;2878481;82;21156;-68
2021/04/11 06:42:32;;;;;;;39.45;30.95;;;;;;;14.62;59.00;99915.17;2815750;83;21144;-68
2021/04/11 06:47:14;;;;;;;68.40;45.35;;;;;;;14.53;59.17;99920.14;2850938;82;21168;-67
2021/04/11 06:52:02;;;;;;;38.48;27.85;;;;;;;14.63;59.39;99916.84;2876676;82;21121;-65
2021/04/11 06:56:44;;;;;;;43.13;30.12;;;;;;;14.87;59.87;99913.94;2882010;82;21137;-65
2021/04/11 07:01:12;;;;;;;42.73;26.77;;;;;;;15.14;59.51;99906.66;2877650;82;21164;-67
2021/04/11 07:05:42;;;;;;;35.40;21.80;;;;;;;15.40;58.42;99902.98;2877676;82;21145;-68
2021/04/11 07:10:41;;;;;;;34.53;22.30;;;;;;;15.46;57.08;99901.48;2850521;82;21164;-67
2021/04/11 07:15:10;;;;;;;29.85;19.73;;;;;;;15.44;56.64;99901.64;2864661;82;21161;-65
2021/04/11 07:19:52;;;;;;;29.30;19.05;;;;;;;15.69;57.00;99892.23;2871427;82;21395;-66
2021/04/11 07:24:00;;;;;;;26.68;19.42;;;;;;;15.99;56.28;99889.89;2826437;82;21148;-64
2021/04/11 07:28:45;;;;;;;26.27;20.35;;;;;;;16.22;55.40;99883.80;2873809;80;21168;-63
2021/04/11 07:33:15;;;;;;;23.77;18.90;;;;;;;16.32;54.78;99885.78;2928512;79;21144;-64
2021/04/11 07:37:46;;;;;;;20.48;15.90;;;;;;;16.47;54.26;99882.35;2927806;80;21134;-62
2021/04/11 07:42:03;;;;;;;22.10;16.35;;;;;;;16.67;54.21;99882.77;2923774;80;21147;-64
2021/04/11 07:46:38;;;;;;;27.20;20.85;;;;;;;16.79;54.93;99883.22;2924395;80;21101;-66
2021/04/11 07:51:32;;;;;;;32.05;20.57;;;;;;;16.81;54.19;99880.69;2929097;80;21154;-66
2021/04/11 07:56:22;;;;;;;18.30;14.80;;;;;;;16.88;55.51;99874.60;2923152;79;21169;-63
2021/04/11 08:00:59;;;;;;;16.45;12.70;;;;;;;16.92;54.62;99873.23;2916725;80;21154;-68
2021/04/11 08:05:30;;;;;;;31.12;13.03;;;;;;;17.02;53.57;99873.88;2921949;80;21615;-67
2021/04/11 08:10:15;;;;;;;17.85;12.80;;;;;;;17.09;52.91;99875.32;2928148;79;21165;-68
2021/04/11 08:14:27;;;;;;;15.78;12.15;;;;;;;17.23;52.91;99871.86;2922737;80;21154;-68
2021/04/11 08:18:57;;;;;;;12.30;9.43;;;;;;;17.44;52.06;99866.84;2926505;80;21145;-70
2021/04/11 08:23:38;;;;;;;14.55;11.15;;;;;;;17.54;51.78;99856.66;2755476;86;21613;-67
2021/04/11 08:28:37;;;;;;;13.93;8.75;;;;;;;17.70;52.18;99855.69;2740414;86;21188;-68
2021/04/11 08:33:17;;;;;;;24.92;9.78;;;;;;;17.96;51.42;99844.45;2774485;84;21148;-68
2021/04/11 08:37:48;;;;;;;14.13;9.73;;;;;;;18.20;50.94;99840.36;2746809;84;21223;-70
2021/04/11 08:42:20;;;;;;;23.70;13.53;;;;;;;18.16;51.75;99839.08;2787599;84;21113;-69
2021/04/11 08:47:10;;;;;;;14.90;7.45;;;;;;;18.35;52.45;99842.53;2792130;83;21173;-66
2021/04/11 08:51:24;;;;;;;6.90;3.20;;;;;;;18.40;50.86;99836.06;2799278;83;21139;-66
2021/04/11 08:55:50;;;;;;;7.73;4.50;;;;;;;18.41;48.72;99826.14;2944630;79;28087;-66
2021/04/11 09:00:18;;;;;;;8.03;3.72;;;;;;;18.60;49.81;99826.05;2925210;80;21153;-65
2021/04/11 09:04:42;;;;;;;6.03;2.50;;;;;;;18.72;48.46;99827.72;2930020;80;21252;-65
2021/04/11 09:08:54;;;;;;;4.30;3.12;;;;;;;18.44;47.97;99815.48;2928597;80;21631;-65
2021/04/11 09:13:39;;;;;;;3.20;2.90;;;;;;;18.40;47.27;99812.36;2895487;80;21142;-66
2021/04/11 09:18:21;;;;;;;3.50;2.35;;;;;;;18.46;48.55;99810.75;2929741;80;21133;-68
2021/04/11 09:23:04;;;;;;;3.85;2.22;;;;;;;18.30;47.46;99804.58;2837984;81;21526;-66
2021/04/11 09:27:58;;;;;;;4.42;2.90;;;;;;;18.46;49.29;99792.75;2884468;81;21165;-66
2021/04/11 09:32:42;;;;;;;2.85;2.05;;;;;;;18.56;48.64;99797.83;2874284;81;21171;-65
2021/04/11 09:37:26;;;;;;;4.95;3.15;;;;;;;18.66;46.26;99797.52;2897242;81;21141;-65
2021/04/11 09:41:43;;;;;;;5.20;2.60;;;;;;;18.66;47.26;99798.33;2886841;81;21130;-66
2021/04/11 09:46:30;;;;;;;6.22;3.10;;;;;;;18.66;47.39;99798.86;2859280;82;21146;-65
2021/04/11 09:51:08;;;;;;;4.50;3.55;;;;;;;18.79;48.12;99785.54;2818936;83;21168;-66
2021/04/11 09:55:40;;;;;;;3.98;3.42;;;;;;;18.76;47.99;99785.08;2670385;87;21232;-68
2021/04/11 09:59:50;;;;;;;2.92;2.47;;;;;;;18.74;48.30;99773.66;2686224;88;21287;-68
2021/04/11 10:04:42;;;;;;;6.45;5.28;;;;;;;18.76;48.75;99771.08;2676448;88;21169;-66
2021/04/11 10:09:19;;;;;;;12.65;5.67;;;;;;;18.92;48.66;99772.70;2684099;88;21204;-67
2021/04/11 10:13:51;;;;;;;9.83;5.87;;;;;;;19.10;47.91;99760.66;2975693;77;22897;-66
2021/04/11 10:18:49;;;;;;;5.60;3.87;;;;;;;19.01;47.73;99764.00;2936182;79;21129;-65
2021/04/11 10:23:34;;;;;;;18.82;8.10;;;;;;;18.76;46.79;99768.39;2925793;79;21169;-66
2021/04/11 10:28:19;;;;;;;8.55;5.72;;;;;;;18.94;49.94;99758.52;2933125;79;21583;-67
2021/04/11 10:32:45;;;;;;;15.00;6.75;;;;;;;18.97;48.93;99760.00;2920811;79;21145;-65
2021/04/11 10:36:51;;;;;;;;;;;;;;;19.07;48.21;99765.91;2930540;79;21531;-69
2021/04/11 10:41:35;;;;;;;5.70;4.75;;;;;;;19.01;47.49;99757.27;2922225;79;20142;-67
2021/04/11 10:45:49;;;;;;;7.72;5.30;;;;;;;19.03;48.16;99753.02;2901851;82;21132;-67
2021/04/11 10:50:25;;;;;;;6.67;4.97;;;;;;;19.06;48.10;99750.77;2902193;82;21088;-67
2021/04/11 10:55:10;;;;;;;5.60;4.45;;;;;;;19.15;48.54;99752.81;2873378;82;21121;-67
2021/04/11 10:59:52;;;;;;;13.80;5.65;;;;;;;19.18;47.49;99759.69;2808613;82;21173;-66
2021/04/11 11:04:19;;;;;;;11.22;6.40;;;;;;;19.22;49.01;99752.86;2896994;81;21148;-65
2021/04/11 11:08:50;;;;;;;8.38;4.97;;;;;;;19.13;47.77;99753.52;2827765;83;21142;-66
2021/04/11 11:13:35;;;;;;;11.00;4.92;;;;;;;19.10;48.09;99745.83;2858631;81;21139;-63
2021/04/11 11:18:17;;;;;;;7.97;6.47;;;;;;;18.85;47.71;99755.62;2862106;81;21159;-64
2021/04/11 11:22:40;;;;;;;10.18;5.50;;;;;;;18.65;48.09;99762.18;2826590;81;21201;-68
2021/04/11 11:27:40;;;;;;;7.67;4.80;;;;;;;18.52;48.33;99750.77;2812392;83;21092;-65
2021/04/11 11:32:08;;;;;;;6.85;5.25;;;;;;;18.48;48.89;99752.17;2908060;81;21150;-62
2021/04/11 11:36:50;;;;;;;7.12;4.53;;;;;;;18.38;48.86;99749.27;2908353;81;21130;-66
2021/04/11 11:41:11;;;;;;;6.62;4.03;;;;;;;18.54;50.34;99754.09;2889354;82;21212;-67
2021/04/11 11:45:43;;;;;;;13.53;6.83;;;;;;;18.79;49.21;99741.59;2883169;82;21144;-63
2021/04/11 11:50:02;;;;;;;6.70;4.05;;;;;;;19.01;49.62;99749.18;2889758;82;21129;-65
2021/04/11 11:54:39;;;;;;;6.03;4.22;;;;;;;19.15;47.41;99742.03;2889175;82;21121;-63
2021/04/11 11:58:47;;;;;;;7.17;3.67;;;;;;;19.32;48.20;99745.78;2889292;82;21157;-61
2021/04/11 12:03:25;;;;;;;4.80;3.95;;;;;;;19.52;48.82;99734.61;2889197;82;21117;-66
2021/04/11 12:07:45;;;;;;;7.83;4.22;;;;;;;19.68;47.94;99734.80;2922732;81;21102;-63
2021/04/11 12:12:31;;;;;;;8.20;4.70;;;;;;;19.62;47.60;99734.75;2934110;80;21094;-64
2021/04/11 12:16:52;;;;;;;9.20;5.33;;;;;;;19.57;47.74;99736.72;2953054;80;21109;-63
2021/04/11 12:21:34;;;;;;;11.48;4.20;;;;;;;19.40;48.16;99735.68;2951751;80;21587;-64
2021/04/11 12:25:38;;;;;;;5.97;4.70;;;;;;;19.31;47.95;99742.77;2952890;80;21173;-64
2021/04/11 12:29:50;;;;;;;4.75;3.58;;;;;;;19.24;48.71;99739.48;2953357;80;21118;-66
2021/04/11 12:34:08;;;;;;;6.15;3.58;;;;;;;19.15;47.97;99736.63;2953004;80;21070;-64
2021/04/11 12:38:19;;;;;;;11.30;5.37;;;;;;;19.02;47.90;99726.59;2915976;80;21179;-62
2021/04/11 12:42:42;;;;;;;6.78;5.80;;;;;;;19.02;48.59;99729.28;2909894;81;21155;-68
2021/04/11 12:47:18;;;;;;;12.15;5.30;;;;;;;19.15;50.36;99721.81;2909799;81;21154;-66
2021/04/11 12:51:36;;;;;;;9.73;6.53;;;;;;;19.31;50.79;99715.80;2909301;80;21126;-65
2021/04/11 12:55:50;;;;;;;31.87;18.07;;;;;;;19.58;50.15;99720.84;2910143;81;21114;-64
2021/04/11 13:00:04;;;;;;;15.53;7.95;;;;;;;19.89;50.88;99723.58;2909913;81;21150;-63
2021/04/11 13:04:37;;;;;;;34.43;15.13;;;;;;;20.12;48.93;99713.00;2910044;81;21177;-65
2021/04/11 13:09:35;;;;;;;14.53;8.33;;;;;;;20.34;47.90;99719.09;2948113;80;21147;-65
2021/04/11 13:13:43;;;;;;;8.93;5.10;;;;;;;20.41;49.18;99715.88;2843531;83;21165;-64
2021/04/11 13:18:10;;;;;;;15.98;7.53;;;;;;;20.45;46.98;99712.79;2843965;83;21158;-63
2021/04/11 13:22:31;;;;;;;9.75;5.72;;;;;;;20.34;46.71;99712.34;2841885;82;21172;-64
2021/04/11 13:26:54;;;;;;;14.90;8.68;;;;;;;20.18;46.91;99708.16;2912591;79;21121;-64
2021/04/11 13:31:24;;;;;;;8.03;4.80;;;;;;;20.24;48.24;99711.88;2929095;79;21634;-64
2021/04/11 13:35:58;;;;;;;5.35;4.00;;;;;;;20.38;47.64;99702.78;2920419;79;21175;-64
2021/04/11 13:40:08;;;;;;;7.03;4.62;;;;;;;20.38;47.04;99704.67;2933517;79;21090;-65
2021/04/11 13:44:28;;;;;;;10.10;6.30;;;;;;;20.31;47.20;99706.50;2937288;79;21117;-65
2021/04/11 13:49:00;;;;;;;11.90;8.00;;;;;;;20.23;47.75;99701.62;2926704;80;21114;-63
2021/04/11 13:53:17;;;;;;;11.75;7.92;;;;;;;20.06;47.00;99697.62;2952553;80;21141;-67
2021/04/11 13:57:32;;;;;;;8.33;5.22;;;;;;;19.94;49.31;99690.63;2935614;80;21086;-66
2021/04/11 14:01:45;;;;;;;6.15;4.20;;;;;;;19.76;48.67;99681.18;2947286;80;21181;-61
2021/04/11 14:05:58;;;;;;;10.72;4.70;;;;;;;19.69;48.84;99687.89;2940913;80;21137;-61
2021/04/11 14:10:37;;;;;;;7.85;5.08;;;;;;;19.79;49.31;99685.36;2902169;82;21101;-63
2021/04/11 14:14:50;;;;;;;5.90;3.98;;;;;;;19.80;46.94;99695.92;2923425;79;21181;-62
2021/04/11 14:19:02;;;;;;;16.30;9.53;;;;;;;19.98;48.85;99701.33;2939810;80;21125;-62
2021/04/11 14:23:29;;;;;;;23.70;13.85;;;;;;;19.91;48.51;99686.95;2894203;82;21620;-62
2021/04/11 14:27:45;;;;;;;10.30;6.83;;;;;;;19.86;49.68;99684.85;2894332;82;21174;-63
2021/04/11 14:31:53;;;;;;;64.92;32.05;;;;;;;19.79;48.84;99680.77;2894477;82;21408;-66
2021/04/11 14:36:15;;;;;;;31.37;13.93;;;;;;;19.88;50.01;99679.27;2894066;81;21104;-64
2021/04/11 14:40:27;;;;;;;10.18;6.70;;;;;;;19.98;49.74;99675.69;2895774;79;21117;-64
2021/04/11 14:44:41;;;;;;;43.42;25.55;;;;;;;19.93;48.64;99678.98;2906683;80;21106;-64
2021/04/11 14:48:46;;;;;;;13.10;7.97;;;;;;;19.99;48.87;99674.65;2872583;81;21171;-62
2021/04/11 14:53:28;;;;;;;11.90;7.03;;;;;;;20.02;47.35;99675.59;2907011;80;21151;-62
2021/04/11 14:57:53;;;;;;;16.42;9.80;;;;;;;19.82;48.01;99669.58;2865064;83;21135;-63
2021/04/11 15:02:30;;;;;;;11.35;4.58;;;;;;;19.70;49.03;99677.95;2943511;80;21145;-62
2021/04/11 15:06:44;;;;;;;14.68;5.55;;;;;;;19.59;49.54;99682.05;2845110;83;21155;-61
2021/04/11 15:11:21;;;;;;;20.17;9.00;;;;;;;19.40;50.14;99682.24;2894527;82;21118;-61
2021/04/11 15:15:52;;;;;;;13.48;10.90;;;;;;;19.28;50.42;99672.53;2861636;83;21156;-62
2021/04/11 15:20:09;;;;;;;9.70;7.55;;;;;;;19.22;50.46;99675.50;2860394;83;21137;-62
2021/04/11 15:24:29;;;;;;;13.83;10.70;;;;;;;19.07;51.45;99673.45;2834935;83;21149;-63
2021/04/11 15:29:01;;;;;;;18.50;13.55;;;;;;;19.03;51.78;99678.89;2922661;80;21157;-61
2021/04/11 15:33:15;;;;;;;18.75;12.78;;;;;;;18.95;51.85;99671.75;2854688;81;21146;-62
2021/04/11 15:37:36;;;;;;;14.33;8.03;;;;;;;18.88;52.13;99674.42;2892549;80;21174;-61
2021/04/11 15:42:04;;;;;;;11.53;9.15;;;;;;;18.76;53.14;99671.93;2926820;80;21159;-62
2021/04/11 15:46:21;;;;;;;25.65;14.53;;;;;;;18.69;53.49;99674.06;2882385;80;21116;-62
2021/04/11 15:50:41;;;;;;;27.32;18.57;;;;;;;18.77;54.32;99672.25;2912203;80;21142;-63
2021/04/11 15:54:58;;;;;;;22.15;13.88;;;;;;;18.87;54.34;99667.38;2882157;80;21175;-61
2021/04/11 15:59:17;;;;;;;16.52;11.15;;;;;;;19.03;54.05;99669.46;2868054;80;21374;-60
2021/04/11 16:03:41;;;;;;;24.37;16.75;;;;;;;19.10;53.86;99669.83;2871580;81;21127;-61
2021/04/11 16:07:59;;;;;;;30.90;12.82;;;;;;;19.12;54.62;99669.11;2872960;80;21123;-63
2021/04/11 16:12:20;;;;;;;30.65;17.35;;;;;;;19.13;55.28;99674.00;2919960;80;21149;-61
2021/04/11 16:17:03;;;;;;;13.85;10.63;;;;;;;19.13;52.27;99674.00;2912118;80;21157;-62
2021/04/11 16:21:48;;;;;;;13.62;8.83;;;;;;;19.15;50.36;99671.09;2938980;79;21126;-62
2021/04/11 16:26:17;;;;;;;20.25;7.97;;;;;;;19.20;50.06;99668.66;2927986;80;21153;-62
2021/04/11 16:30:46;;;;;;;18.62;9.00;;;;;;;19.20;49.01;99668.13;2902967;80;21576;-61
2021/04/11 16:35:16;;;;;;;23.57;12.03;;;;;;;19.13;49.70;99664.04;2916165;79;21126;-62
2021/04/11 16:40:04;;;;;;;39.88;11.25;;;;;;;19.06;49.80;99663.67;2930016;80;21117;-63
2021/04/11 16:44:35;;;;;;;15.48;10.18;;;;;;;18.93;50.05;99666.58;2945093;80;21165;-63
2021/04/11 16:48:57;;;;;;;20.48;9.60;;;;;;;18.76;50.82;99667.36;2920702;80;21144;-61
2021/04/11 16:53:27;;;;;;;11.22;6.70;;;;;;;18.55;52.14;99668.23;2894448;82;21114;-63
2021/04/11 16:57:41;;;;;;;16.77;10.18;;;;;;;18.32;52.69;99669.27;2894227;81;21165;-63
2021/04/11 17:01:52;;;;;;;19.40;11.25;;;;;;;18.11;53.68;99683.53;2893917;81;21162;-61
2021/04/11 17:06:02;;;;;;;16.75;11.08;;;;;;;17.96;54.54;99686.23;2921877;79;21141;-62
2021/04/11 17:10:16;;;;;;;28.17;19.02;;;;;;;17.76;55.20;99687.33;2900241;80;21146;-62
2021/04/11 17:14:44;;;;;;;26.80;23.32;;;;;;;17.59;55.77;99686.70;2944887;80;21145;-62
2021/04/11 17:19:15;;;;;;;25.97;22.15;;;;;;;17.44;55.92;99686.72;2901637;80;21106;-60
2021/04/11 17:23:26;;;;;;;24.90;12.53;;;;;;;17.26;56.05;99692.77;2908569;79;21194;-62
2021/04/11 17:27:57;;;;;;;12.80;9.08;;;;;;;17.08;56.51;99694.47;2925835;79;21132;-61
2021/04/11 17:32:11;;;;;;;6.95;6.03;;;;;;;16.92;57.05;99707.53;2921624;80;21149;-62
2021/04/11 17:36:32;;;;;;;59.13;33.40;;;;;;;16.76;57.58;99707.66;2930676;80;21138;-61
2021/04/11 17:40:37;;;;;;;49.10;29.18;;;;;;;16.60;58.25;99708.11;2941845;80;21134;-61
2021/04/11 17:45:08;;;;;;;52.60;29.50;;;;;;;16.43;58.61;99710.09;2944085;80;21097;-61
2021/04/11 17:49:41;;;;;;;46.15;27.48;;;;;;;16.20;59.55;99716.77;2943885;80;21122;-63
2021/04/11 17:54:16;;;;;;;37.60;26.48;;;;;;;15.90;60.34;99721.94;2938913;79;21584;-62
2021/04/11 17:58:57;;;;;;;112.97;74.92;;;;;;;15.65;61.03;99723.36;2915418;80;21141;-61
2021/04/11 18:03:35;;;;;;;135.28;85.05;;;;;;;15.41;61.51;99727.78;2915322;79;21181;-60
2021/04/11 18:07:45;;;;;;;;;;;;;;;15.25;61.70;99732.16;2913187;79;21174;-60
2021/04/11 18:12:26;;;;;;;19.57;13.08;;;;;;;15.09;62.19;99744.23;2920478;80;20163;-61
2021/04/11 18:17:08;;;;;;;15.63;11.12;;;;;;;14.93;62.74;99748.58;2900387;82;21168;-61
2021/04/11 18:21:36;;;;;;;13.65;11.03;;;;;;;14.77;63.11;99745.93;2900034;82;21148;-61
2021/04/11 18:26:04;;;;;;;101.02;66.30;;;;;;;14.66;63.40;99753.75;2908702;79;21195;-61
2021/04/11 18:30:15;;;;;;;61.83;33.95;;;;;;;14.64;63.46;99756.58;2922853;80;21152;-60
2021/04/11 18:34:34;;;;;;;28.20;18.65;;;;;;;14.57;63.81;99759.59;2888081;80;21124;-61
2021/04/11 18:39:22;;;;;;;26.85;15.38;;;;;;;14.42;64.13;99765.58;2907945;79;21152;-61
2021/04/11 18:43:37;;;;;;;23.95;14.25;;;;;;;14.22;64.74;99768.20;2918000;80;21100;-61
2021/04/11 18:47:54;;;;;;;16.57;10.95;;;;;;;14.00;65.59;99771.80;2911708;80;21163;-61
2021/04/11 18:52:22;;;;;;;214.88;105.80;;;;;;;13.79;66.27;99773.05;2916389;79;21172;-62
2021/04/11 18:56:57;;;;;;;153.82;93.90;;;;;;;13.66;66.67;99764.62;2939159;79;21120;-62
2021/04/11 19:01:30;;;;;;;140.15;93.82;;;;;;;13.54;66.85;99768.06;2950881;80;21195;-61
2021/04/11 19:06:18;;;;;;;109.37;67.05;;;;;;;13.41;66.92;99771.13;2941688;79;21157;-61
2021/04/11 19:10:44;;;;;;;149.68;82.37;;;;;;;13.31;67.07;99766.37;2927620;79;21140;-61
2021/04/11 19:15:26;;;;;;;75.25;48.25;;;;;;;13.19;67.48;99770.65;2930687;80;21706;-61
2021/04/11 19:19:54;;;;;;;81.25;53.35;;;;;;;13.09;67.65;99768.06;2941687;80;21547;-62
2021/04/11 19:24:26;;;;;;;124.47;97.45;;;;;;;12.97;68.24;99770.63;2936513;80;21607;-61
2021/04/11 19:28:59;;;;;;;96.78;72.00;;;;;;;12.87;68.62;99770.71;2933157;80;21094;-61
2021/04/11 19:33:27;;;;;;;111.15;57.43;;;;;;;12.71;68.88;99762.89;2933298;80;21130;-61
2021/04/11 19:37:42;;;;;;;33.70;19.40;;;;;;;12.60;69.07;99763.14;2927554;80;21175;-62
2021/04/11 19:42:15;;;;;;;21.30;14.80;;;;;;;12.55;68.67;99754.73;2930263;80;21572;-61
2021/04/11 19:47:05;;;;;;;29.57;17.25;;;;;;;12.73;68.19;99762.75;2828497;83;21177;-62
2021/04/11 19:51:19;;;;;;;40.50;26.07;;;;;;;12.96;67.50;99763.10;2843512;83;21164;-62
2021/04/11 19:55:51;;;;;;;31.73;18.87;;;;;;;13.07;67.20;99771.87;2893156;81;21136;-62
2021/04/11 20:00:40;;;;;;;33.42;25.30;;;;;;;13.00;66.80;99764.50;2849705;83;21169;-61
2021/04/11 20:05:05;;;;;;;32.75;22.60;;;;;;;12.77;67.21;99763.27;2902902;82;21611;-61
2021/04/11 20:09:47;;;;;;;60.33;39.03;;;;;;;12.61;67.68;99760.81;2899526;82;21145;-62
2021/04/11 20:14:35;;;;;;;36.60;23.05;;;;;;;12.52;68.03;99761.23;2899453;82;21141;-61
2021/04/11 20:18:49;;;;;;;28.00;14.83;;;;;;;12.46;68.52;99761.81;2820351;83;21132;-61
2021/04/11 20:23:50;;;;;;;15.90;8.95;;;;;;;12.47;68.69;99762.16;2844600;83;21113;-61